CheckWX is a tool to help pilots better visualize weather data.  It is not intended as a substitute for an official pre-flight weather briefing.

02:03:01 UTC

EBBL TAF
Kleine Brogel Air Base Airport
Kleine Brogel, Belgium
TAF EBBL 191541Z 1919/2007 24010G20KT 9999 SCT040 BECMG 2001/2003 FEW270 BECMG 2005/2007 23010KT SCT190

Aug-19@
19:00 UTC

Aug-19 @ 19:00 UTC

Aug-20@
01:00 UTC

Aug-20 @ 01:00 UTC

TAF EBBL 191541Z 1919/2007 24010G20KT 9999 SCT040

Expired

Wind
  • 240° at 10 KTS
  • {Gusting to 20 KTS
Cloud Levels
  • Scattered at 4,000' AGL

Aug-20@
01:00 UTC

Aug-20 @ 01:00 UTC

Aug-20@
05:00 UTC

Aug-20 @ 05:00 UTC

BECMG 2001/2003 FEW270

Becoming

Becoming Conditions expected by Tue, Aug 20, 2019 @ 03:00 UTC

Wind
  • 240° at 10 KTS
  • {Gusting to 20 KTS
Cloud Levels
  • Few at 27,000' AGL

Aug-20@
05:00 UTC

Aug-20 @ 05:00 UTC

Aug-20@
07:00 UTC

Aug-20 @ 07:00 UTC

BECMG 2005/2007 23010KT SCT190

Becoming

Becoming Conditions expected by Tue, Aug 20, 2019 @ 07:00 UTC

Wind
  • 230° at 10 KTS
Cloud Levels
  • Scattered at 19,000' AGL